createdAt,value
2019-05-23T00:00:44.996Z,6.00
2019-05-23T00:03:37.101Z,8.33
2019-05-23T00:06:25.941Z,7.28
2019-05-23T00:09:14.227Z,7.70
2019-05-23T00:11:58.195Z,6.72
2019-05-23T00:14:39.965Z,11.12
2019-05-23T00:17:14.288Z,11.85
2019-05-23T00:19:44.363Z,8.78
2019-05-23T00:22:14.887Z,6.85
2019-05-23T00:24:45.954Z,9.20
2019-05-23T00:27:17.301Z,9.50
2019-05-23T00:29:49.016Z,7.65
2019-05-23T00:32:29.942Z,11.25
2019-05-23T00:34:59.943Z,13.38
2019-05-23T00:37:31.215Z,14.20
2019-05-23T00:40:01.068Z,11.75
2019-05-23T00:42:31.605Z,16.12
2019-05-23T00:45:02.397Z,12.95
2019-05-23T00:47:32.994Z,14.20
2019-05-23T00:50:03.613Z,14.00
2019-05-23T00:52:33.477Z,16.20
2019-05-23T00:55:04.946Z,15.18
2019-05-23T00:57:34.453Z,16.23
2019-05-23T01:00:04.697Z,14.80
2019-05-23T01:02:35.270Z,18.20
2019-05-23T01:05:06.657Z,13.97
2019-05-23T01:07:37.025Z,12.05
2019-05-23T01:10:07.243Z,12.28
2019-05-23T01:12:37.460Z,12.03
2019-05-23T01:15:08.405Z,9.98
2019-05-23T01:17:39.598Z,15.32
2019-05-23T01:20:12.151Z,12.43
2019-05-23T01:22:41.758Z,9.93
2019-05-23T01:25:12.576Z,13.30
2019-05-23T01:27:43.172Z,8.60
2019-05-23T01:30:16.419Z,10.50
2019-05-23T01:32:47.817Z,9.05
2019-05-23T01:35:22.251Z,13.30
2019-05-23T01:37:52.589Z,12.82
2019-05-23T01:40:22.374Z,11.60
2019-05-23T01:42:52.261Z,13.40
2019-05-23T01:45:22.818Z,9.23
2019-05-23T01:47:53.269Z,11.38
2019-05-23T01:50:25.989Z,11.33
2019-05-23T01:52:55.642Z,10.50
2019-05-23T01:55:25.165Z,12.95
2019-05-23T01:57:54.651Z,10.20
2019-05-23T02:00:26.755Z,12.65
2019-05-23T02:02:56.513Z,12.78
2019-05-23T02:05:26.098Z,12.35
2019-05-23T02:07:56.641Z,7.87
2019-05-23T02:10:26.122Z,13.38
2019-05-23T02:12:55.705Z,11.65
2019-05-23T02:15:25.969Z,9.88
2019-05-23T02:17:56.990Z,8.28
2019-05-23T02:20:27.307Z,8.23
2019-05-23T02:22:58.677Z,4.87
2019-05-23T02:25:29.090Z,5.72
2019-05-23T02:27:59.466Z,6.33
2019-05-23T02:30:36.241Z,7.00
2019-05-23T02:33:00.232Z,5.28
2019-05-23T02:35:29.710Z,7.00
2019-05-23T02:38:21.790Z,4.65
2019-05-23T02:41:00.233Z,4.55
2019-05-23T02:43:32.222Z,3.98
2019-05-23T02:46:03.941Z,4.20
2019-05-23T02:48:39.237Z,5.72
2019-05-23T02:51:13.232Z,5.28
2019-05-23T02:53:44.187Z,5.20
2019-05-23T02:56:14.301Z,5.80
2019-05-23T02:59:03.019Z,5.72
2019-05-23T03:02:08.150Z,5.10
2019-05-23T03:04:38.501Z,6.20
2019-05-23T03:07:09.639Z,6.55
2019-05-23T03:09:39.915Z,5.45
2019-05-23T03:12:11.253Z,6.03
2019-05-23T03:14:42.412Z,4.80
2019-05-23T03:17:16.428Z,6.35
2019-05-23T03:19:51.703Z,6.60
2019-05-23T03:22:30.941Z,5.70
2019-05-23T03:25:03.114Z,4.30
2019-05-23T03:27:36.759Z,4.23
2019-05-23T03:30:08.970Z,4.00
2019-05-23T03:32:49.821Z,4.05
2019-05-23T03:35:47.656Z,4.15
2019-05-23T03:38:17.431Z,4.00
2019-05-23T03:40:47.305Z,3.30
2019-05-23T03:43:17.454Z,3.80
2019-05-23T03:45:53.313Z,4.20
2019-05-23T03:48:23.992Z,5.80
2019-05-23T03:50:55.320Z,5.37
2019-05-23T03:53:27.633Z,6.65
2019-05-23T03:55:57.559Z,5.40
2019-05-23T03:58:27.227Z,7.20
2019-05-23T04:00:57.271Z,5.90
2019-05-23T04:03:29.531Z,7.05
2019-05-23T04:05:59.564Z,9.03
2019-05-23T04:08:29.687Z,11.43
2019-05-23T04:10:59.234Z,11.35
2019-05-23T04:13:29.087Z,11.20
2019-05-23T04:15:58.699Z,9.10
2019-05-23T04:18:28.279Z,9.03
2019-05-23T04:20:57.798Z,9.57
2019-05-23T04:23:27.286Z,10.40
2019-05-23T04:25:56.797Z,11.00
2019-05-23T04:28:26.988Z,11.40
2019-05-23T04:30:56.827Z,12.05
2019-05-23T04:33:26.676Z,11.78
2019-05-23T04:35:56.264Z,13.90
2019-05-23T04:38:26.147Z,17.17
2019-05-23T04:40:55.988Z,16.12
2019-05-23T04:43:25.865Z,16.07
2019-05-23T04:45:55.848Z,13.53
2019-05-23T04:48:25.337Z,17.65
2019-05-23T04:50:59.755Z,17.35
2019-05-23T04:53:27.059Z,15.35
2019-05-23T04:55:56.626Z,18.30
2019-05-23T04:58:26.404Z,18.02
2019-05-23T05:00:55.980Z,20.43
2019-05-23T05:03:25.769Z,18.10
2019-05-23T05:05:55.292Z,18.20
2019-05-23T05:08:25.582Z,18.20
2019-05-23T05:10:55.085Z,21.62
2019-05-23T05:13:24.834Z,25.32
2019-05-23T05:15:55.690Z,20.12
2019-05-23T05:18:25.393Z,24.07
2019-05-23T05:20:54.894Z,23.70
2019-05-23T05:23:24.477Z,25.93
2019-05-23T05:25:54.049Z,23.23
2019-05-23T05:28:23.592Z,26.70
2019-05-23T05:30:53.472Z,23.80
2019-05-23T05:33:23.003Z,25.02
2019-05-23T05:35:53.385Z,22.10
2019-05-23T05:38:23.766Z,22.37
2019-05-23T05:40:53.325Z,22.57
2019-05-23T05:43:23.589Z,23.73
2019-05-23T05:45:53.170Z,23.25
2019-05-23T05:48:22.705Z,20.92
2019-05-23T05:50:52.944Z,19.80
2019-05-23T05:53:22.520Z,19.60
2019-05-23T05:55:52.117Z,22.48
2019-05-23T05:58:21.557Z,21.05
2019-05-23T06:01:00.939Z,23.02
2019-05-23T06:03:30.446Z,22.85
2019-05-23T06:06:16.498Z,20.67
2019-05-23T06:08:47.321Z,21.90
2019-05-23T06:11:16.831Z,19.17
2019-05-23T06:13:46.659Z,21.73
2019-05-23T06:16:16.260Z,19.90
2019-05-23T06:18:46.631Z,19.93
2019-05-23T06:21:18.981Z,21.20
2019-05-23T06:23:48.515Z,18.50
2019-05-23T06:26:18.019Z,17.20
2019-05-23T06:28:47.617Z,19.93
2019-05-23T06:31:17.730Z,19.00
2019-05-23T06:33:47.449Z,17.52
2019-05-23T06:36:18.366Z,16.65
2019-05-23T06:38:48.167Z,16.05
2019-05-23T06:41:18.425Z,16.13
2019-05-23T06:43:47.954Z,17.62
2019-05-23T06:46:17.510Z,17.65
2019-05-23T06:48:47.378Z,14.20
2019-05-23T06:51:18.327Z,17.82
2019-05-23T06:53:47.945Z,14.63
2019-05-23T06:56:17.593Z,14.43
2019-05-23T06:58:47.115Z,12.87
2019-05-23T07:01:16.705Z,13.50
2019-05-23T07:03:46.219Z,14.20
2019-05-23T07:06:17.990Z,13.90
2019-05-23T07:08:47.509Z,16.12
2019-05-23T07:11:17.763Z,10.93
2019-05-23T07:13:47.554Z,8.07
2019-05-23T07:16:17.137Z,8.93
2019-05-23T07:18:46.643Z,16.40
2019-05-23T07:21:16.530Z,7.70
2019-05-23T07:23:46.160Z,8.00
2019-05-23T07:26:15.789Z,5.93
2019-05-23T07:28:45.595Z,6.30
2019-05-23T07:31:16.758Z,9.93
2019-05-23T07:34:00.905Z,10.38
2019-05-23T07:36:17.681Z,7.40
2019-05-23T07:38:47.252Z,3.98
2019-05-23T07:41:17.449Z,8.40
2019-05-23T07:43:47.262Z,2.30
2019-05-23T07:46:16.852Z,3.47
2019-05-23T07:48:46.465Z,6.33
2019-05-23T07:51:16.031Z,2.30
2019-05-23T07:54:07.936Z,3.00
2019-05-23T07:56:37.732Z,6.37
2019-05-23T07:59:07.850Z,2.30
2019-05-23T08:01:39.800Z,2.77
2019-05-23T08:04:21.438Z,3.80
2019-05-23T08:06:41.174Z,3.73
2019-05-23T08:09:11.342Z,5.20
2019-05-23T08:11:44.420Z,3.93
2019-05-23T08:14:13.932Z,3.50
2019-05-23T08:16:44.561Z,5.33
2019-05-23T08:19:19.176Z,3.40
2019-05-23T08:21:46.184Z,4.93
2019-05-23T08:24:15.688Z,7.30
2019-05-23T08:26:46.441Z,4.00
2019-05-23T08:29:26.180Z,2.98
2019-05-23T08:31:47.132Z,4.00
2019-05-23T08:34:19.422Z,3.58
2019-05-23T08:36:51.767Z,3.75
2019-05-23T08:39:22.892Z,2.95
2019-05-23T08:41:52.536Z,4.33
2019-05-23T08:44:23.826Z,5.67
2019-05-23T08:46:57.132Z,4.10
2019-05-23T08:49:26.787Z,3.85
2019-05-23T08:51:56.635Z,4.97
2019-05-23T08:54:26.153Z,4.72
2019-05-23T08:56:56.357Z,2.60
2019-05-23T08:59:25.943Z,3.10
2019-05-23T09:01:55.777Z,2.20
2019-05-23T09:04:25.265Z,2.70
2019-05-23T09:06:55.364Z,3.00
2019-05-23T09:09:29.961Z,3.70
2019-05-23T09:11:58.796Z,2.12
2019-05-23T09:14:29.055Z,3.20
2019-05-23T09:16:58.889Z,5.90
2019-05-23T09:19:28.421Z,5.80
2019-05-23T09:21:58.387Z,4.10
2019-05-23T09:24:27.989Z,3.40
2019-05-23T09:26:57.929Z,2.10
2019-05-23T09:29:27.617Z,1.70
2019-05-23T09:31:57.151Z,3.00
2019-05-23T09:34:26.726Z,3.47
2019-05-23T09:37:00.291Z,4.10
2019-05-23T09:39:30.331Z,6.53
2019-05-23T09:41:59.911Z,1.27
2019-05-23T09:44:29.453Z,2.55
2019-05-23T09:46:59.063Z,1.47
2019-05-23T09:49:28.884Z,4.42
2019-05-23T09:52:01.391Z,4.05
2019-05-23T09:54:31.033Z,1.63
2019-05-23T09:57:00.699Z,3.30
2019-05-23T09:59:30.288Z,1.50
2019-05-23T10:02:01.321Z,3.30
2019-05-23T10:04:30.866Z,3.03
2019-05-23T10:07:00.396Z,4.33
2019-05-23T10:09:29.887Z,2.27
2019-05-23T10:11:59.493Z,3.25
2019-05-23T10:14:31.923Z,4.40
2019-05-23T10:17:01.453Z,5.33
2019-05-23T10:19:30.947Z,1.90
2019-05-23T10:22:01.553Z,2.93
2019-05-23T10:24:31.136Z,2.70
2019-05-23T10:27:00.641Z,6.60
2019-05-23T10:29:30.155Z,2.95
2019-05-23T10:31:59.666Z,3.77
2019-05-23T10:34:29.165Z,2.20
2019-05-23T10:36:58.683Z,3.97
2019-05-23T10:39:28.200Z,4.97
2019-05-23T10:41:58.500Z,7.67
2019-05-23T10:44:27.976Z,4.33
2019-05-23T10:46:57.492Z,8.53
2019-05-23T10:49:27.058Z,6.33
2019-05-23T10:51:56.656Z,5.90
2019-05-23T10:54:26.228Z,6.15
2019-05-23T10:56:55.750Z,6.87
2019-05-23T10:59:26.212Z,8.10
2019-05-23T11:01:56.791Z,5.33
2019-05-23T11:04:27.442Z,6.85
2019-05-23T11:06:57.184Z,6.80
2019-05-23T11:09:37.151Z,9.55
2019-05-23T11:11:58.074Z,4.43
2019-05-23T11:14:27.648Z,5.70
2019-05-23T11:16:57.163Z,5.93
2019-05-23T11:19:26.687Z,10.70
2019-05-23T11:21:56.186Z,8.38
2019-05-23T11:24:25.717Z,7.87
2019-05-23T11:26:55.322Z,8.50
2019-05-23T11:29:27.230Z,11.60
2019-05-23T11:31:56.605Z,4.08
2019-05-23T11:34:26.984Z,4.50
2019-05-23T11:36:56.518Z,4.47
2019-05-23T11:39:27.765Z,7.17
2019-05-23T11:41:57.389Z,7.20
2019-05-23T11:44:26.899Z,4.30
2019-05-23T11:46:56.805Z,7.60
2019-05-23T11:49:26.334Z,5.37
2019-05-23T11:51:56.009Z,5.20
2019-05-23T11:54:25.881Z,6.15
2019-05-23T11:56:55.829Z,7.30
2019-05-23T11:59:25.346Z,5.53
2019-05-23T12:02:19.963Z,6.00
2019-05-23T12:04:50.957Z,8.53
2019-05-23T12:07:26.778Z,6.33
2019-05-23T12:09:56.280Z,8.95
2019-05-23T12:12:26.055Z,6.28
2019-05-23T12:14:56.604Z,8.37
2019-05-23T12:17:28.955Z,7.40
2019-05-23T12:19:58.503Z,7.75
2019-05-23T12:22:28.274Z,12.05
2019-05-23T12:24:58.056Z,8.38
2019-05-23T12:27:27.803Z,7.60
2019-05-23T12:29:57.405Z,7.80
2019-05-23T12:32:26.980Z,8.93
2019-05-23T12:35:09.468Z,6.80
2019-05-23T12:37:27.842Z,6.43
2019-05-23T12:39:57.900Z,7.30
2019-05-23T12:42:27.805Z,6.93
2019-05-23T12:44:57.414Z,7.10
2019-05-23T12:47:40.881Z,8.60
2019-05-23T12:50:14.138Z,7.07
2019-05-23T12:52:43.623Z,6.58
2019-05-23T12:55:13.290Z,9.07
2019-05-23T12:57:42.808Z,6.20
2019-05-23T13:00:26.265Z,8.53
2019-05-23T13:02:58.686Z,8.20
2019-05-23T13:05:28.271Z,9.75
2019-05-23T13:07:57.775Z,7.25
2019-05-23T13:10:27.462Z,8.93
2019-05-23T13:12:57.108Z,11.70
2019-05-23T13:15:27.022Z,8.83
2019-05-23T13:17:56.552Z,8.90
2019-05-23T13:20:26.278Z,7.42
2019-05-23T13:22:55.786Z,9.96
2019-05-23T13:25:27.045Z,10.47
2019-05-23T13:27:58.794Z,8.85
2019-05-23T13:30:28.576Z,11.03
2019-05-23T13:32:58.108Z,6.10
2019-05-23T13:35:28.768Z,10.15
2019-05-23T13:37:58.322Z,8.75
2019-05-23T13:40:27.940Z,10.72
2019-05-23T13:42:58.106Z,11.48
2019-05-23T13:45:27.924Z,15.27
2019-05-23T13:47:57.430Z,8.40
2019-05-23T13:50:28.253Z,9.85
2019-05-23T13:52:58.591Z,9.73
2019-05-23T13:55:28.282Z,10.60
2019-05-23T13:57:57.814Z,12.30
2019-05-23T14:00:28.693Z,12.87
2019-05-23T14:02:58.326Z,9.15
2019-05-23T14:05:27.952Z,12.68
2019-05-23T14:08:11.320Z,11.77
2019-05-23T14:10:29.192Z,8.93
2019-05-23T14:12:58.696Z,9.63
2019-05-23T14:15:33.704Z,9.20
2019-05-23T14:18:03.640Z,12.97
2019-05-23T14:20:33.285Z,9.45
2019-05-23T14:23:09.104Z,9.15
2019-05-23T14:25:38.798Z,11.88
2019-05-23T14:28:09.210Z,7.63
2019-05-23T14:30:52.206Z,9.13
2019-05-23T14:33:29.289Z,10.17
2019-05-23T14:36:00.596Z,13.90
2019-05-23T14:38:32.441Z,9.30
2019-05-23T14:41:02.207Z,8.95
2019-05-23T14:43:31.775Z,12.30
2019-05-23T14:46:04.050Z,11.85
2019-05-23T14:48:51.796Z,11.47
2019-05-23T14:51:30.807Z,9.80
2019-05-23T14:54:10.350Z,10.10
2019-05-23T14:56:39.899Z,14.20
2019-05-23T14:59:09.539Z,12.70
2019-05-23T15:01:39.090Z,11.20
2019-05-23T15:04:08.848Z,12.65
2019-05-23T15:06:38.560Z,12.97
2019-05-23T15:09:08.949Z,12.40
2019-05-23T15:11:38.993Z,11.25
2019-05-23T15:14:08.582Z,12.30
2019-05-23T15:16:38.141Z,16.50
2019-05-23T15:19:07.755Z,11.00
2019-05-23T15:21:37.294Z,11.87
2019-05-23T15:24:07.010Z,10.72
2019-05-23T15:26:36.657Z,11.00
2019-05-23T15:29:06.849Z,12.07
2019-05-23T15:31:36.366Z,11.80
2019-05-23T15:34:05.951Z,12.05
2019-05-23T15:36:35.456Z,12.63
2019-05-23T15:39:10.010Z,11.50
2019-05-23T15:41:39.060Z,10.55
2019-05-23T15:44:24.041Z,10.40
2019-05-23T15:46:39.806Z,10.60
2019-05-23T15:49:10.657Z,12.13
2019-05-23T15:51:46.118Z,9.97
2019-05-23T15:54:34.681Z,10.38
2019-05-23T15:57:12.764Z,12.27
2019-05-23T15:59:49.047Z,10.05
2019-05-23T16:02:29.100Z,12.40
2019-05-23T16:05:00.158Z,12.37
2019-05-23T16:07:30.313Z,12.13
2019-05-23T16:09:59.994Z,10.95
2019-05-23T16:12:29.534Z,12.23
2019-05-23T16:14:59.104Z,9.90
2019-05-23T16:17:29.029Z,7.20
2019-05-23T16:19:59.040Z,10.20
2019-05-23T16:22:28.957Z,12.03
2019-05-23T16:24:58.511Z,7.83
2019-05-23T16:27:28.094Z,8.53
2019-05-23T16:29:57.599Z,10.00
2019-05-23T16:32:27.126Z,24.37
2019-05-23T16:34:56.652Z,8.80
2019-05-23T16:37:26.180Z,8.37
2019-05-23T16:39:55.702Z,10.65
2019-05-23T16:42:25.511Z,22.13
2019-05-23T16:44:55.010Z,17.75
2019-05-23T16:47:25.341Z,37.60
2019-05-23T16:49:55.360Z,14.05
2019-05-23T16:52:24.940Z,8.88
2019-05-23T16:54:56.100Z,9.43
2019-05-23T16:57:36.053Z,6.33
2019-05-23T17:00:24.712Z,8.23
2019-05-23T17:03:17.279Z,8.77
2019-05-23T17:06:11.802Z,10.28
2019-05-23T17:08:58.181Z,6.97
2019-05-23T17:11:37.303Z,6.75
2019-05-23T17:14:25.855Z,9.10
2019-05-23T17:17:13.165Z,9.37
2019-05-23T17:19:53.673Z,6.47
2019-05-23T17:22:57.678Z,9.10
2019-05-23T17:25:46.124Z,8.17
2019-05-23T17:28:21.942Z,8.15
2019-05-23T17:30:54.375Z,8.58
2019-05-23T17:33:24.237Z,6.80
2019-05-23T17:35:53.821Z,6.42
2019-05-23T17:38:23.825Z,9.80
2019-05-23T17:40:53.344Z,10.30
2019-05-23T17:43:23.253Z,7.47
2019-05-23T17:45:53.861Z,10.53
2019-05-23T17:48:23.495Z,7.30
2019-05-23T17:50:52.956Z,8.03
2019-05-23T17:53:22.474Z,8.63
2019-05-23T17:55:52.256Z,10.00
2019-05-23T17:58:22.038Z,7.27
2019-05-23T18:00:51.809Z,8.33
2019-05-23T18:03:21.351Z,9.27
2019-05-23T18:05:50.947Z,9.17
2019-05-23T18:08:20.503Z,11.75
2019-05-23T18:10:50.024Z,10.48
2019-05-23T18:13:20.697Z,10.60
2019-05-23T18:15:50.360Z,10.35
2019-05-23T18:18:20.641Z,8.63
2019-05-23T18:20:50.333Z,9.40
2019-05-23T18:23:20.223Z,8.10
2019-05-23T18:25:50.028Z,11.95
2019-05-23T18:28:20.052Z,11.28
2019-05-23T18:30:56.608Z,8.33
2019-05-23T18:33:28.530Z,8.86
2019-05-23T18:35:58.898Z,9.88
2019-05-23T18:38:28.692Z,9.23
2019-05-23T18:41:04.290Z,10.33
2019-05-23T18:43:30.010Z,10.70
2019-05-23T18:46:03.546Z,11.27
2019-05-23T18:48:33.410Z,10.07
2019-05-23T18:51:02.948Z,11.33
2019-05-23T18:53:32.458Z,10.75
2019-05-23T18:56:02.043Z,11.33
2019-05-23T18:58:31.678Z,19.75
2019-05-23T19:01:13.915Z,13.62
2019-05-23T19:03:43.749Z,15.20
2019-05-23T19:06:13.267Z,11.40
2019-05-23T19:08:43.254Z,14.60
2019-05-23T19:11:20.784Z,12.67
2019-05-23T19:13:44.176Z,15.17
2019-05-23T19:16:13.694Z,15.95
2019-05-23T19:18:43.254Z,15.83
2019-05-23T19:21:15.294Z,13.90
2019-05-23T19:23:44.917Z,14.70
2019-05-23T19:26:15.300Z,11.43
2019-05-23T19:28:45.623Z,14.93
2019-05-23T19:31:16.023Z,13.87
2019-05-23T19:33:46.749Z,13.70
2019-05-23T19:36:16.838Z,12.95
2019-05-23T19:38:47.336Z,13.17
2019-05-23T19:41:16.926Z,18.53
2019-05-23T19:43:48.206Z,15.07
2019-05-23T19:46:18.267Z,15.80
2019-05-23T19:48:48.537Z,12.95
2019-05-23T19:51:18.705Z,12.10
2019-05-23T19:53:48.441Z,14.70
2019-05-23T19:56:18.418Z,15.90
2019-05-23T19:58:48.028Z,18.50
2019-05-23T20:01:18.409Z,15.97
2019-05-23T20:03:48.428Z,12.57
2019-05-23T20:06:18.789Z,11.30
2019-05-23T20:08:48.963Z,12.68
2019-05-23T20:11:18.566Z,14.00
2019-05-23T20:13:48.097Z,12.77
2019-05-23T20:16:17.610Z,10.40
2019-05-23T20:18:47.294Z,15.25
2019-05-23T20:21:17.009Z,10.35
2019-05-23T20:23:46.540Z,12.25
2019-05-23T20:26:16.291Z,11.43
2019-05-23T20:28:45.811Z,8.83
2019-05-23T20:31:15.302Z,12.27
2019-05-23T20:33:44.853Z,12.37
2019-05-23T20:36:14.905Z,10.10
2019-05-23T20:38:44.815Z,10.27
2019-05-23T20:41:14.346Z,11.40
2019-05-23T20:43:43.911Z,13.72
2019-05-23T20:46:13.424Z,12.00
2019-05-23T20:48:42.961Z,10.03
2019-05-23T20:51:12.637Z,10.97
2019-05-23T20:53:42.641Z,8.65
2019-05-23T20:56:12.226Z,14.87
2019-05-23T20:58:41.774Z,10.90
2019-05-23T21:01:18.640Z,14.75
2019-05-23T21:03:48.772Z,8.95
2019-05-23T21:06:18.269Z,10.45
2019-05-23T21:08:47.789Z,11.57
2019-05-23T21:11:17.288Z,9.90
2019-05-23T21:13:46.884Z,13.40
2019-05-23T21:16:16.385Z,14.07
2019-05-23T21:18:49.196Z,14.05
2019-05-23T21:21:18.082Z,10.58
2019-05-23T21:23:47.779Z,12.60
2019-05-23T21:26:17.690Z,12.90
2019-05-23T21:28:47.274Z,11.45
2019-05-23T21:31:22.628Z,13.40
2019-05-23T21:33:52.139Z,13.30
2019-05-23T21:36:21.679Z,16.75
2019-05-23T21:38:51.265Z,14.53
2019-05-23T21:41:20.758Z,13.80
2019-05-23T21:43:51.934Z,16.23
2019-05-23T21:46:21.463Z,14.13
2019-05-23T21:48:50.992Z,14.80
2019-05-23T21:51:20.512Z,17.00
2019-05-23T21:53:50.024Z,15.10
2019-05-23T21:56:19.525Z,16.75
2019-05-23T21:58:49.042Z,18.07
2019-05-23T22:01:37.978Z,12.58
2019-05-23T22:04:38.826Z,16.15
2019-05-23T22:07:09.091Z,15.55
2019-05-23T22:09:39.074Z,15.58
2019-05-23T22:12:12.737Z,12.98
2019-05-23T22:14:42.260Z,16.07
2019-05-23T22:17:11.763Z,14.30
2019-05-23T22:19:41.571Z,11.43
2019-05-23T22:22:11.298Z,16.90
2019-05-23T22:24:40.819Z,12.88
2019-05-23T22:27:11.244Z,14.70
2019-05-23T22:29:40.748Z,14.93
2019-05-23T22:32:11.888Z,16.02
2019-05-23T22:34:49.379Z,14.30
2019-05-23T22:37:24.530Z,17.35
2019-05-23T22:39:54.101Z,20.00
2019-05-23T22:42:24.977Z,18.15
2019-05-23T22:44:54.489Z,18.20
2019-05-23T22:47:25.004Z,19.45
2019-05-23T22:49:54.610Z,22.42
2019-05-23T22:52:24.192Z,19.10
2019-05-23T22:54:53.717Z,17.52
2019-05-23T22:57:23.228Z,18.77
2019-05-23T22:59:52.767Z,25.15
2019-05-23T23:02:22.268Z,21.35
2019-05-23T23:04:51.775Z,19.50
2019-05-23T23:07:21.382Z,25.90
2019-05-23T23:09:51.067Z,20.82
2019-05-23T23:12:20.571Z,17.55
2019-05-23T23:14:50.250Z,22.05
2019-05-23T23:17:20.412Z,22.00
2019-05-23T23:19:49.910Z,23.83
2019-05-23T23:22:19.477Z,21.68
2019-05-23T23:24:48.933Z,19.45
2019-05-23T23:27:18.471Z,20.52
2019-05-23T23:29:48.000Z,20.65
2019-05-23T23:32:17.530Z,20.37
2019-05-23T23:34:47.046Z,21.53
2019-05-23T23:37:16.561Z,20.90
2019-05-23T23:39:46.122Z,18.82
2019-05-23T23:42:15.609Z,23.85
2019-05-23T23:44:44.275Z,23.85
2019-05-23T23:47:31.659Z,21.35
2019-05-23T23:50:19.258Z,25.43
2019-05-23T23:53:06.609Z,28.25
2019-05-23T23:55:53.921Z,24.12
2019-05-23T23:58:23.545Z,25.48
